createdAt,value
2019-04-20T00:01:47.253Z,14.21
2019-04-20T00:04:23.375Z,14.35
2019-04-20T00:06:54.095Z,14.39
2019-04-20T00:09:28.776Z,14.22
2019-04-20T00:12:07.077Z,14.10
2019-04-20T00:14:33.882Z,13.87
2019-04-20T00:17:03.439Z,14.01
2019-04-20T00:19:40.511Z,13.96
2019-04-20T00:22:15.159Z,14.00
2019-04-20T00:25:06.623Z,14.09
2019-04-20T00:28:15.264Z,14.17
2019-04-20T00:30:48.107Z,14.31
2019-04-20T00:33:09.551Z,14.32
2019-04-20T00:35:33.847Z,14.33
2019-04-20T00:38:05.622Z,14.30
2019-04-20T00:40:41.228Z,14.30
2019-04-20T00:43:19.626Z,14.29
2019-04-20T00:45:51.519Z,14.19
2019-04-20T00:48:32.665Z,13.99
2019-04-20T00:51:06.954Z,13.94
2019-04-20T00:53:31.384Z,13.92
2019-04-20T00:55:57.193Z,14.14
2019-04-20T00:58:35.952Z,14.07
2019-04-20T01:01:20.534Z,13.99
2019-04-20T01:03:52.692Z,13.99
2019-04-20T01:06:46.764Z,13.84
2019-04-20T01:09:24.450Z,13.82
2019-04-20T01:11:56.627Z,13.79
2019-04-20T01:14:35.855Z,13.63
2019-04-20T01:17:11.420Z,13.76
2019-04-20T01:19:33.915Z,13.83
2019-04-20T01:22:10.732Z,13.79
2019-04-20T01:24:43.281Z,13.69
2019-04-20T01:27:28.454Z,13.80
2019-04-20T01:29:49.401Z,13.63
2019-04-20T01:32:27.849Z,13.63
2019-04-20T01:34:58.564Z,13.51
2019-04-20T01:37:33.719Z,13.42
2019-04-20T01:40:15.001Z,13.13
2019-04-20T01:42:46.762Z,13.09
2019-04-20T01:45:27.064Z,12.79
2019-04-20T01:47:55.860Z,12.67
2019-04-20T01:50:29.645Z,12.46
2019-04-20T01:53:10.203Z,12.28
2019-04-20T01:55:49.368Z,12.39
2019-04-20T01:58:46.149Z,12.14
2019-04-20T02:01:25.151Z,11.94
2019-04-20T02:04:27.975Z,11.81
2019-04-20T02:07:00.450Z,11.69
2019-04-20T02:09:32.520Z,11.57
2019-04-20T02:12:10.353Z,11.49
2019-04-20T02:14:43.654Z,11.36
2019-04-20T02:17:19.638Z,11.24
2019-04-20T02:20:07.975Z,11.25
2019-04-20T02:22:34.183Z,11.23
2019-04-20T02:24:47.166Z,11.31
2019-04-20T02:27:20.631Z,11.39
2019-04-20T02:30:21.831Z,11.53
2019-04-20T02:33:07.051Z,11.55
2019-04-20T02:36:13.247Z,11.58
2019-04-20T02:39:00.501Z,11.60
2019-04-20T02:41:42.039Z,11.91
2019-04-20T02:44:00.747Z,12.05
2019-04-20T02:46:14.810Z,12.16
2019-04-20T02:49:04.586Z,12.17
2019-04-20T02:54:11.470Z,12.16
2019-04-20T02:56:41.833Z,12.10
2019-04-20T02:59:25.106Z,11.98
2019-04-20T03:01:52.150Z,11.93
2019-04-20T03:04:12.330Z,11.89
2019-04-20T03:06:55.978Z,11.67
2019-04-20T03:09:33.105Z,11.65
2019-04-20T03:12:08.232Z,11.53
2019-04-20T03:14:30.320Z,11.62
2019-04-20T03:17:18.210Z,11.66
2019-04-20T03:19:37.684Z,11.73
2019-04-20T03:22:21.327Z,11.78
2019-04-20T03:25:19.241Z,11.78
2019-04-20T03:28:25.906Z,11.75
2019-04-20T03:31:33.322Z,11.86
2019-04-20T03:36:19.834Z,11.74
2019-04-20T03:38:41.451Z,11.80
2019-04-20T03:41:09.175Z,11.70
2019-04-20T03:43:28.723Z,11.67
2019-04-20T03:46:31.032Z,11.59
2019-04-20T03:49:38.469Z,11.44
2019-04-20T03:52:25.897Z,11.17
2019-04-20T03:55:16.092Z,10.92
2019-04-20T03:58:03.200Z,10.69
2019-04-20T04:00:54.259Z,10.49
2019-04-20T04:03:47.320Z,10.21
2019-04-20T04:06:23.449Z,9.99
2019-04-20T04:08:58.724Z,9.81
2019-04-20T04:11:31.190Z,9.65
2019-04-20T04:13:48.480Z,9.53
2019-04-20T04:16:21.976Z,9.45
2019-04-20T04:19:21.592Z,9.29
2019-04-20T04:22:26.238Z,9.23
2019-04-20T04:25:28.712Z,9.17
2019-04-20T04:28:10.832Z,9.14
2019-04-20T04:30:43.085Z,9.10
2019-04-20T04:33:40.272Z,9.07
2019-04-20T04:35:55.722Z,9.09
2019-04-20T04:38:36.279Z,9.07
2019-04-20T04:41:08.447Z,9.12
2019-04-20T04:43:36.004Z,9.15
2019-04-20T04:46:07.942Z,9.14
2019-04-20T04:49:23.313Z,9.16
2019-04-20T04:51:58.568Z,9.20
2019-04-20T04:54:50.340Z,9.23
2019-04-20T04:57:24.780Z,9.25
2019-04-20T04:59:57.259Z,9.27
2019-04-20T05:02:33.075Z,9.30
2019-04-20T05:05:47.340Z,9.36
2019-04-20T05:08:18.805Z,9.38
2019-04-20T05:10:43.717Z,9.45
2019-04-20T05:13:21.937Z,9.56
2019-04-20T05:16:09.777Z,9.60
2019-04-20T05:18:55.487Z,9.66
2019-04-20T05:22:01.305Z,9.69
2019-04-20T05:24:48.443Z,9.79
2019-04-20T05:27:36.098Z,9.88
2019-04-20T05:29:46.761Z,9.96
2019-04-20T05:32:31.380Z,10.07
2019-04-20T05:35:16.414Z,10.10
2019-04-20T05:37:59.776Z,10.31
2019-04-20T05:40:21.913Z,10.40
2019-04-20T05:42:59.393Z,10.64
2019-04-20T05:46:25.352Z,10.80
2019-04-20T05:49:11.736Z,10.87
2019-04-20T05:51:39.743Z,11.13
2019-04-20T05:54:13.584Z,12.28
2019-04-20T05:56:45.702Z,14.00
2019-04-20T05:59:19.177Z,15.73
2019-04-20T06:01:58.865Z,16.97
2019-04-20T06:05:00.379Z,18.23
2019-04-20T06:07:25.197Z,19.37
2019-04-20T06:09:54.503Z,20.40
2019-04-20T06:12:29.408Z,20.50
2019-04-20T06:15:21.161Z,20.70
2019-04-20T06:18:40.090Z,20.55
2019-04-20T06:21:29.432Z,21.36
2019-04-20T06:24:16.781Z,21.35
2019-04-20T06:26:59.265Z,21.55
2019-04-20T06:30:08.873Z,22.01
2019-04-20T06:33:53.352Z,22.00
2019-04-20T06:36:32.552Z,21.06
2019-04-20T06:39:32.627Z,21.61
2019-04-20T06:42:21.980Z,21.09
2019-04-20T06:45:07.350Z,20.92
2019-04-20T06:48:11.106Z,21.00
2019-04-20T06:51:25.008Z,21.78
2019-04-20T06:54:47.155Z,21.69
2019-04-20T06:57:29.209Z,20.54
2019-04-20T07:00:17.215Z,20.23
2019-04-20T07:02:53.094Z,20.48
2019-04-20T07:05:39.588Z,20.83
2019-04-20T07:08:35.088Z,21.51
2019-04-20T07:11:18.694Z,20.68
2019-04-20T07:13:38.696Z,20.74
2019-04-20T07:16:36.254Z,21.05
2019-04-20T07:19:41.659Z,21.58
2019-04-20T07:22:37.569Z,21.78
2019-04-20T07:25:40.664Z,22.30
2019-04-20T07:28:21.842Z,22.81
2019-04-20T07:31:06.824Z,23.24
2019-04-20T07:34:22.944Z,22.40
2019-04-20T07:40:38.352Z,22.60
2019-04-20T07:44:10.700Z,22.93
2019-04-20T07:47:13.708Z,23.68
2019-04-20T07:49:52.600Z,23.38
2019-04-20T07:52:33.919Z,23.82
2019-04-20T07:55:56.863Z,23.96
2019-04-20T07:58:55.304Z,24.54
2019-04-20T08:02:13.780Z,24.87
2019-04-20T08:04:59.568Z,24.34
2019-04-20T08:08:27.131Z,24.42
2019-04-20T08:11:37.999Z,24.04
2019-04-20T08:14:32.017Z,24.23
2019-04-20T08:20:19.108Z,23.60
2019-04-20T08:23:38.876Z,23.36
2019-04-20T08:26:28.859Z,24.30
2019-04-20T08:30:02.020Z,24.44
2019-04-20T08:33:14.519Z,24.79
2019-04-20T08:36:18.642Z,24.80
2019-04-20T08:39:45.111Z,24.73
2019-04-20T08:42:32.598Z,23.80
2019-04-20T08:45:10.947Z,23.85
2019-04-20T08:47:45.871Z,24.08
2019-04-20T08:50:48.252Z,24.44
2019-04-20T08:53:44.650Z,24.12
2019-04-20T08:56:31.948Z,24.03
2019-04-20T08:59:18.903Z,24.32
2019-04-20T09:01:58.087Z,24.18
2019-04-20T09:04:38.753Z,24.81
2019-04-20T09:07:29.781Z,24.23
2019-04-20T09:10:28.243Z,23.14
2019-04-20T09:13:08.361Z,23.23
2019-04-20T09:15:34.081Z,23.16
2019-04-20T09:18:52.444Z,22.73
2019-04-20T09:22:25.183Z,23.49
2019-04-20T09:25:57.705Z,24.04
2019-04-20T09:28:32.280Z,24.68
2019-04-20T09:31:25.851Z,24.31
2019-04-20T09:34:24.741Z,24.47
2019-04-20T09:37:40.770Z,24.93
2019-04-20T09:40:40.230Z,25.13
2019-04-20T09:43:43.149Z,24.41
2019-04-20T09:46:26.454Z,23.92
2019-04-20T09:49:18.602Z,22.94
2019-04-20T09:52:15.749Z,22.73
2019-04-20T09:54:54.869Z,22.68
2019-04-20T09:57:44.026Z,22.53
2019-04-20T10:00:38.277Z,22.37
2019-04-20T10:03:00.289Z,22.08
2019-04-20T10:05:59.283Z,22.17
2019-04-20T10:09:00.408Z,22.26
2019-04-20T10:11:50.449Z,22.23
2019-04-20T10:14:40.706Z,22.40
2019-04-20T10:17:33.254Z,22.43
2019-04-20T10:20:11.849Z,22.47
2019-04-20T10:23:09.400Z,22.62
2019-04-20T10:26:10.372Z,22.69
2019-04-20T10:29:19.646Z,22.62
2019-04-20T10:32:00.170Z,22.50
2019-04-20T10:34:32.781Z,22.41
2019-04-20T10:37:27.251Z,22.40
2019-04-20T10:40:34.651Z,22.53
2019-04-20T10:43:06.199Z,22.90
2019-04-20T10:46:00.667Z,22.78
2019-04-20T10:48:40.307Z,22.67
2019-04-20T10:51:29.522Z,22.56
2019-04-20T10:54:40.727Z,22.51
2019-04-20T10:57:15.424Z,22.53
2019-04-20T10:59:52.983Z,22.77
2019-04-20T11:02:53.520Z,22.95
2019-04-20T11:05:26.507Z,22.91
2019-04-20T11:08:20.783Z,23.12
2019-04-20T11:11:32.003Z,23.01
2019-04-20T11:14:17.966Z,22.92
2019-04-20T11:17:07.153Z,22.93
2019-04-20T11:19:41.144Z,22.95
2019-04-20T11:22:40.214Z,23.07
2019-04-20T11:25:16.583Z,23.18
2019-04-20T11:28:14.288Z,23.29
2019-04-20T11:31:05.919Z,23.57
2019-04-20T11:33:58.301Z,23.11
2019-04-20T11:36:50.824Z,23.25
2019-04-20T11:39:41.171Z,23.33
2019-04-20T11:42:13.997Z,23.40
2019-04-20T11:45:04.638Z,23.47
2019-04-20T11:47:57.801Z,23.49
2019-04-20T11:51:05.515Z,23.57
2019-04-20T11:54:14.596Z,23.60
2019-04-20T11:57:04.260Z,23.61
2019-04-20T11:59:59.217Z,23.59
2019-04-20T12:02:46.509Z,23.81
2019-04-20T12:06:07.073Z,23.86
2019-04-20T12:08:42.735Z,23.92
2019-04-20T12:12:14.183Z,24.04
2019-04-20T12:14:39.260Z,24.20
2019-04-20T12:17:19.779Z,24.20
2019-04-20T12:20:29.055Z,24.31
2019-04-20T12:23:20.225Z,24.24
2019-04-20T12:25:56.301Z,24.11
2019-04-20T12:28:35.815Z,24.13
2019-04-20T12:31:23.693Z,24.17
2019-04-20T12:34:02.189Z,24.18
2019-04-20T12:36:58.256Z,24.24
2019-04-20T12:39:53.317Z,24.38
2019-04-20T12:42:54.940Z,24.50
2019-04-20T12:45:37.782Z,24.45
2019-04-20T12:48:35.525Z,24.31
2019-04-20T12:51:33.796Z,24.52
2019-04-20T12:54:39.960Z,24.62
2019-04-20T12:57:28.936Z,24.50
2019-04-20T13:00:03.571Z,24.64
2019-04-20T13:02:54.143Z,24.73
2019-04-20T13:05:25.664Z,24.76
2019-04-20T13:08:13.763Z,24.54
2019-04-20T13:10:56.200Z,24.55
2019-04-20T13:13:46.682Z,24.60
2019-04-20T13:16:32.279Z,24.48
2019-04-20T13:19:51.530Z,24.48
2019-04-20T13:22:25.594Z,24.68
2019-04-20T13:25:01.028Z,24.83
2019-04-20T13:27:38.846Z,24.65
2019-04-20T13:30:50.004Z,24.71
2019-04-20T13:33:29.634Z,24.79
2019-04-20T13:36:42.094Z,24.94
2019-04-20T13:39:53.058Z,24.83
2019-04-20T13:42:43.695Z,24.75
2019-04-20T13:45:42.662Z,24.78
2019-04-20T13:48:27.158Z,24.81
2019-04-20T13:51:05.578Z,24.72
2019-04-20T13:53:57.514Z,24.82
2019-04-20T13:57:11.174Z,24.86
2019-04-20T13:59:53.776Z,24.90
2019-04-20T14:02:53.939Z,24.98
2019-04-20T14:05:53.021Z,24.88
2019-04-20T14:08:41.233Z,24.86
2019-04-20T14:11:17.722Z,24.89
2019-04-20T14:14:27.203Z,25.06
2019-04-20T14:17:19.092Z,25.26
2019-04-20T14:20:12.130Z,25.01
2019-04-20T14:23:07.338Z,25.09
2019-04-20T14:25:55.176Z,24.91
2019-04-20T14:29:07.272Z,24.95
2019-04-20T14:32:00.574Z,24.97
2019-04-20T14:34:35.115Z,24.97
2019-04-20T14:37:20.341Z,24.94
2019-04-20T14:39:56.447Z,24.89
2019-04-20T14:42:41.872Z,24.99
2019-04-20T14:45:08.916Z,25.02
2019-04-20T14:47:41.455Z,24.97
2019-04-20T14:50:13.759Z,25.00
2019-04-20T14:52:45.044Z,25.15
2019-04-20T14:55:17.740Z,25.32
2019-04-20T14:57:49.891Z,25.49
2019-04-20T15:00:45.795Z,25.64
2019-04-20T15:03:45.537Z,25.42
2019-04-20T15:06:17.848Z,26.08
2019-04-20T15:08:50.438Z,25.89
2019-04-20T15:11:22.972Z,25.83
2019-04-20T15:13:54.360Z,26.11
2019-04-20T15:16:26.582Z,25.90
2019-04-20T15:19:15.847Z,25.65
2019-04-20T15:21:49.479Z,25.75
2019-04-20T15:24:21.817Z,25.68
2019-04-20T15:26:54.248Z,25.41
2019-04-20T15:29:26.424Z,25.23
2019-04-20T15:31:57.800Z,25.73
2019-04-20T15:34:29.175Z,26.16
2019-04-20T15:37:00.528Z,25.58
2019-04-20T15:39:32.859Z,25.59
2019-04-20T15:42:09.651Z,25.87
2019-04-20T15:44:47.253Z,26.21
2019-04-20T15:47:22.353Z,26.45
2019-04-20T15:49:58.085Z,26.30
2019-04-20T15:52:36.790Z,25.91
2019-04-20T15:55:11.840Z,25.44
2019-04-20T15:57:38.768Z,25.74
2019-04-20T16:00:10.999Z,25.83
2019-04-20T16:03:05.444Z,26.09
2019-04-20T16:05:56.522Z,26.40
2019-04-20T16:08:32.419Z,26.94
2019-04-20T16:11:15.121Z,27.00
2019-04-20T16:13:50.510Z,26.36
2019-04-20T16:16:19.930Z,26.81
2019-04-20T16:18:52.915Z,26.39
2019-04-20T16:21:27.624Z,26.06
2019-04-20T16:24:10.910Z,26.49
2019-04-20T16:27:07.646Z,26.32
2019-04-20T16:29:39.743Z,26.29
2019-04-20T16:32:12.217Z,26.07
2019-04-20T16:34:44.531Z,25.72
2019-04-20T16:37:16.908Z,25.21
2019-04-20T16:39:48.443Z,24.88
2019-04-20T16:42:20.272Z,24.86
2019-04-20T16:44:51.680Z,24.59
2019-04-20T16:47:24.040Z,24.49
2019-04-20T16:49:55.349Z,24.77
2019-04-20T16:52:26.740Z,24.75
2019-04-20T16:54:57.960Z,24.51
2019-04-20T16:57:29.853Z,24.63
2019-04-20T17:00:02.788Z,25.23
2019-04-20T17:02:34.572Z,24.73
2019-04-20T17:05:07.146Z,24.49
2019-04-20T17:07:42.847Z,24.26
2019-04-20T17:10:20.070Z,24.05
2019-04-20T17:12:53.683Z,23.99
2019-04-20T17:15:25.530Z,23.96
2019-04-20T17:17:58.805Z,23.82
2019-04-20T17:20:30.644Z,23.73
2019-04-20T17:23:04.848Z,23.82
2019-04-20T17:25:35.309Z,23.79
2019-04-20T17:28:32.851Z,23.86
2019-04-20T17:31:15.906Z,23.94
2019-04-20T17:34:27.186Z,23.52
2019-04-20T17:36:42.271Z,23.52
2019-04-20T17:39:25.261Z,23.57
2019-04-20T17:42:03.414Z,23.54
2019-04-20T17:44:35.950Z,23.50
2019-04-20T17:47:03.806Z,23.01
2019-04-20T17:49:39.101Z,22.63
2019-04-20T17:52:26.629Z,22.34
2019-04-20T17:54:43.119Z,22.18
2019-04-20T17:57:15.221Z,22.04
2019-04-20T17:59:53.183Z,21.86
2019-04-20T18:03:06.036Z,21.74
2019-04-20T18:05:48.182Z,21.65
2019-04-20T18:08:22.442Z,21.53
2019-04-20T18:10:47.493Z,21.45
2019-04-20T18:13:14.257Z,21.37
2019-04-20T18:15:58.883Z,21.31
2019-04-20T18:18:44.092Z,21.14
2019-04-20T18:21:26.723Z,21.00
2019-04-20T18:23:58.291Z,20.86
2019-04-20T18:26:47.951Z,20.78
2019-04-20T18:29:20.217Z,20.65
2019-04-20T18:31:51.415Z,20.54
2019-04-20T18:34:51.243Z,20.51
2019-04-20T18:37:21.411Z,20.43
2019-04-20T18:39:57.270Z,20.26
2019-04-20T18:42:32.367Z,20.09
2019-04-20T18:45:16.030Z,20.09
2019-04-20T18:47:49.022Z,20.02
2019-04-20T18:50:10.528Z,19.91
2019-04-20T18:52:40.150Z,19.97
2019-04-20T18:55:17.313Z,19.84
2019-04-20T18:57:44.892Z,19.73
2019-04-20T19:00:28.048Z,19.49
2019-04-20T19:02:56.069Z,19.38
2019-04-20T19:05:26.440Z,19.36
2019-04-20T19:08:05.217Z,19.24
2019-04-20T19:10:36.805Z,19.21
2019-04-20T19:13:21.538Z,19.21
2019-04-20T19:16:16.504Z,19.22
2019-04-20T19:18:56.043Z,19.13
2019-04-20T19:21:15.173Z,19.02
2019-04-20T19:23:55.962Z,18.94
2019-04-20T19:26:22.818Z,18.92
2019-04-20T19:28:56.431Z,18.97
2019-04-20T19:31:42.367Z,18.88
2019-04-20T19:34:16.722Z,18.92
2019-04-20T19:36:38.891Z,18.87
2019-04-20T19:39:24.484Z,18.76
2019-04-20T19:41:49.781Z,18.76
2019-04-20T19:44:24.161Z,18.64
2019-04-20T19:47:11.375Z,18.57
2019-04-20T19:49:32.880Z,18.38
2019-04-20T19:52:36.957Z,18.33
2019-04-20T19:54:50.826Z,18.21
2019-04-20T19:57:22.172Z,18.25
2019-04-20T19:59:41.266Z,18.21
2019-04-20T20:02:11.781Z,18.18
2019-04-20T20:05:04.070Z,18.02
2019-04-20T20:07:37.966Z,17.94
2019-04-20T20:10:08.704Z,17.78
2019-04-20T20:12:47.053Z,17.72
2019-04-20T20:15:22.031Z,17.60
2019-04-20T20:18:11.016Z,17.66
2019-04-20T20:20:47.617Z,17.67
2019-04-20T20:23:01.869Z,17.63
2019-04-20T20:25:38.426Z,17.45
2019-04-20T20:28:18.821Z,17.29
2019-04-20T20:30:56.607Z,17.26
2019-04-20T20:33:34.901Z,17.21
2019-04-20T20:36:02.233Z,17.07
2019-04-20T20:38:31.551Z,17.10
2019-04-20T20:41:08.715Z,17.02
2019-04-20T20:43:47.467Z,17.02
2019-04-20T20:46:16.224Z,16.99
2019-04-20T20:49:03.469Z,16.91
2019-04-20T20:51:34.494Z,16.94
2019-04-20T20:53:54.601Z,16.91
2019-04-20T20:56:27.420Z,16.86
2019-04-20T20:59:00.883Z,16.73
2019-04-20T21:01:26.450Z,16.67
2019-04-20T21:03:58.498Z,16.63
2019-04-20T21:06:30.691Z,16.58
2019-04-20T21:09:03.661Z,16.57
2019-04-20T21:11:36.352Z,16.42
2019-04-20T21:14:08.941Z,16.38
2019-04-20T21:16:48.801Z,16.25
2019-04-20T21:19:29.609Z,16.31
2019-04-20T21:21:57.094Z,16.19
2019-04-20T21:24:28.747Z,16.19
2019-04-20T21:27:07.021Z,16.20
2019-04-20T21:29:37.842Z,16.09
2019-04-20T21:32:12.567Z,16.08
2019-04-20T21:34:42.418Z,16.05
2019-04-20T21:37:18.929Z,15.98
2019-04-20T21:39:53.920Z,15.91
2019-04-20T21:42:24.402Z,15.84
2019-04-20T21:45:04.592Z,15.84
2019-04-20T21:47:31.538Z,15.75
2019-04-20T21:50:18.754Z,15.70
2019-04-20T21:52:38.747Z,15.56
2019-04-20T21:55:06.013Z,15.58
2019-04-20T21:57:44.724Z,15.61
2019-04-20T22:00:26.172Z,15.56
2019-04-20T22:02:56.734Z,15.53
2019-04-20T22:05:21.406Z,15.50
2019-04-20T22:07:52.667Z,15.51
2019-04-20T22:10:27.670Z,15.47
2019-04-20T22:13:00.966Z,15.49
2019-04-20T22:15:33.584Z,15.34
2019-04-20T22:18:06.819Z,15.28
2019-04-20T22:20:49.432Z,15.23
2019-04-20T22:23:23.146Z,15.04
2019-04-20T22:25:56.547Z,14.91
2019-04-20T22:28:16.025Z,14.84
2019-04-20T22:30:48.380Z,14.83
2019-04-20T22:33:31.342Z,14.91
2019-04-20T22:36:00.889Z,14.91
2019-04-20T22:38:55.839Z,14.83
2019-04-20T22:41:24.713Z,14.79
2019-04-20T22:43:54.814Z,14.55
2019-04-20T22:46:31.757Z,14.52
2019-04-20T22:49:17.395Z,14.43
2019-04-20T22:51:44.851Z,14.44
2019-04-20T22:54:21.661Z,14.49
2019-04-20T22:56:51.387Z,14.55
2019-04-20T22:59:16.486Z,14.50
2019-04-20T23:01:48.540Z,14.37
2019-04-20T23:04:17.362Z,14.27
2019-04-20T23:06:51.638Z,14.24
2019-04-20T23:09:22.626Z,14.27
2019-04-20T23:12:01.010Z,14.11
2019-04-20T23:14:27.028Z,14.04
2019-04-20T23:16:58.270Z,13.98
2019-04-20T23:19:38.222Z,13.92
2019-04-20T23:22:05.375Z,13.95
2019-04-20T23:24:35.627Z,14.04
2019-04-20T23:27:13.969Z,14.06
2019-04-20T23:29:41.641Z,13.90
2019-04-20T23:32:14.556Z,13.96
2019-04-20T23:34:49.027Z,13.87
2019-04-20T23:37:25.472Z,13.64
2019-04-20T23:39:53.100Z,13.59
2019-04-20T23:42:33.585Z,13.41
2019-04-20T23:45:31.422Z,13.48
2019-04-20T23:48:04.861Z,13.37
2019-04-20T23:50:50.746Z,13.25
2019-04-20T23:53:25.719Z,13.10
2019-04-20T23:55:41.733Z,13.00
2019-04-20T23:58:14.691Z,12.97
